sensor_id;sensor_type;location;lat;lon;timestamp;pressure;altitude;pressure_sealevel;temperature;humidity
71239;BME280;61342;51.442;7.370;2023-05-11T00:00:39;99831.03;;;15.79;100.00
71239;BME280;61342;51.442;7.370;2023-05-11T00:01:39;99831.56;;;15.70;100.00
71239;BME280;61342;51.442;7.370;2023-05-11T00:02:40;99842.97;;;15.68;100.00
71239;BME280;61342;51.442;7.370;2023-05-11T00:03:40;99840.25;;;15.62;100.00
71239;BME280;61342;51.442;7.370;2023-05-11T00:04:41;99840.63;;;15.59;100.00
71239;BME280;61342;51.442;7.370;2023-05-11T00:05:46;99837.16;;;15.53;100.00
71239;BME280;61342;51.442;7.370;2023-05-11T00:06:46;99838.28;;;15.50;100.00
71239;BME280;61342;51.442;7.370;2023-05-11T00:07:47;99837.13;;;15.46;100.00
71239;BME280;61342;51.442;7.370;2023-05-11T00:08:47;99835.91;;;15.41;100.00
71239;BME280;61342;51.442;7.370;2023-05-11T00:09:48;99845.19;;;15.40;100.00
71239;BME280;61342;51.442;7.370;2023-05-11T00:10:48;99833.59;;;15.32;100.00
71239;BME280;61342;51.442;7.370;2023-05-11T00:11:51;99839.38;;;15.32;100.00
71239;BME280;61342;51.442;7.370;2023-05-11T00:12:51;99833.19;;;15.28;100.00
71239;BME280;61342;51.442;7.370;2023-05-11T00:13:52;99843.97;;;15.28;100.00
71239;BME280;61342;51.442;7.370;2023-05-11T00:14:52;99837.03;;;15.23;100.00
71239;BME280;61342;51.442;7.370;2023-05-11T00:15:52;99838.16;;;15.20;100.00
71239;BME280;61342;51.442;7.370;2023-05-11T00:16:53;99838.69;;;15.19;100.00
71239;BME280;61342;51.442;7.370;2023-05-11T00:17:53;99841.00;;;15.13;100.00
71239;BME280;61342;51.442;7.370;2023-05-11T00:18:54;99832.31;;;15.13;100.00
71239;BME280;61342;51.442;7.370;2023-05-11T00:19:54;99837.88;;;15.11;100.00
71239;BME280;61342;51.442;7.370;2023-05-11T00:20:55;99834.97;;;15.11;100.00
71239;BME280;61342;51.442;7.370;2023-05-11T00:21:56;99834.63;;;15.14;100.00
71239;BME280;61342;51.442;7.370;2023-05-11T00:22:58;99833.91;;;15.21;100.00
71239;BME280;61342;51.442;7.370;2023-05-11T00:23:58;99835.50;;;15.30;100.00
71239;BME280;61342;51.442;7.370;2023-05-11T00:24:58;99835.72;;;15.39;100.00
71239;BME280;61342;51.442;7.370;2023-05-11T00:25:59;99837.50;;;15.50;100.00
71239;BME280;61342;51.442;7.370;2023-05-11T00:26:59;99829.63;;;15.57;100.00
71239;BME280;61342;51.442;7.370;2023-05-11T00:27:59;99841.03;;;15.63;100.00
71239;BME280;61342;51.442;7.370;2023-05-11T00:29:00;99843.75;;;15.68;100.00
71239;BME280;61342;51.442;7.370;2023-05-11T00:30:00;99827.16;;;15.69;100.00
71239;BME280;61342;51.442;7.370;2023-05-11T00:31:01;99832.94;;;15.69;100.00
71239;BME280;61342;51.442;7.370;2023-05-11T00:32:01;99829.84;;;15.67;100.00
71239;BME280;61342;51.442;7.370;2023-05-11T00:33:02;99838.34;;;15.65;100.00
71239;BME280;61342;51.442;7.370;2023-05-11T00:34:02;99835.22;;;15.63;100.00
71239;BME280;61342;51.442;7.370;2023-05-11T00:35:03;99832.50;;;15.57;100.00
71239;BME280;61342;51.442;7.370;2023-05-11T00:36:03;99836.00;;;15.56;100.00
71239;BME280;61342;51.442;7.370;2023-05-11T00:37:04;99833.66;;;15.55;100.00
71239;BME280;61342;51.442;7.370;2023-05-11T00:38:04;99839.84;;;15.51;100.00
71239;BME280;61342;51.442;7.370;2023-05-11T00:39:05;99841.00;;;15.48;100.00
71239;BME280;61342;51.442;7.370;2023-05-11T00:40:06;99845.59;;;15.44;100.00
71239;BME280;61342;51.442;7.370;2023-05-11T00:41:07;99838.81;;;15.41;100.00
71239;BME280;61342;51.442;7.370;2023-05-11T00:42:07;99835.50;;;15.37;100.00
71239;BME280;61342;51.442;7.370;2023-05-11T00:43:09;99841.13;;;15.35;100.00
71239;BME280;61342;51.442;7.370;2023-05-11T00:44:09;99842.06;;;15.30;100.00
71239;BME280;61342;51.442;7.370;2023-05-11T00:45:10;99840.31;;;15.27;100.00
71239;BME280;61342;51.442;7.370;2023-05-11T00:46:10;99844.16;;;15.22;100.00
71239;BME280;61342;51.442;7.370;2023-05-11T00:47:11;99841.59;;;15.19;100.00
71239;BME280;61342;51.442;7.370;2023-05-11T00:48:11;99831.94;;;15.16;100.00
71239;BME280;61342;51.442;7.370;2023-05-11T00:49:12;99836.53;;;15.12;100.00
71239;BME280;61342;51.442;7.370;2023-05-11T00:50:17;99840.00;;;15.10;100.00
71239;BME280;61342;51.442;7.370;2023-05-11T00:51:18;99831.13;;;15.08;100.00
71239;BME280;61342;51.442;7.370;2023-05-11T00:52:20;99835.94;;;15.06;100.00
71239;BME280;61342;51.442;7.370;2023-05-11T00:53:20;99836.53;;;15.04;100.00
71239;BME280;61342;51.442;7.370;2023-05-11T00:54:21;99831.84;;;15.01;100.00
71239;BME280;61342;51.442;7.370;2023-05-11T00:55:21;99838.97;;;15.00;100.00
71239;BME280;61342;51.442;7.370;2023-05-11T00:56:22;99829.88;;;14.97;100.00
71239;BME280;61342;51.442;7.370;2023-05-11T00:57:22;99840.69;;;14.96;100.00
71239;BME280;61342;51.442;7.370;2023-05-11T00:58:24;99842.63;;;14.94;100.00
71239;BME280;61342;51.442;7.370;2023-05-11T00:59:24;99832.19;;;14.91;100.00
71239;BME280;61342;51.442;7.370;2023-05-11T01:00:28;99829.06;;;14.89;100.00
71239;BME280;61342;51.442;7.370;2023-05-11T01:01:28;99844.34;;;14.89;100.00
71239;BME280;61342;51.442;7.370;2023-05-11T01:02:30;99836.78;;;14.86;100.00
71239;BME280;61342;51.442;7.370;2023-05-11T01:03:31;99843.69;;;14.83;100.00
71239;BME280;61342;51.442;7.370;2023-05-11T01:04:32;99832.91;;;14.84;100.00
71239;BME280;61342;51.442;7.370;2023-05-11T01:05:40;99839.81;;;14.81;100.00
71239;BME280;61342;51.442;7.370;2023-05-11T01:07:12;99834.19;;;14.75;100.00
71239;BME280;61342;51.442;7.370;2023-05-11T01:08:35;99846.91;;;14.72;100.00
71239;BME280;61342;51.442;7.370;2023-05-11T01:11:07;99845.75;;;14.68;100.00
71239;BME280;61342;51.442;7.370;2023-05-11T01:13:38;99839.75;;;14.66;100.00
71239;BME280;61342;51.442;7.370;2023-05-11T01:14:56;99843.03;;;14.70;100.00
71239;BME280;61342;51.442;7.370;2023-05-11T01:15:57;99833.22;;;14.73;100.00
71239;BME280;61342;51.442;7.370;2023-05-11T01:17:02;99837.91;;;14.83;100.00
71239;BME280;61342;51.442;7.370;2023-05-11T01:18:14;99839.38;;;14.97;100.00
71239;BME280;61342;51.442;7.370;2023-05-11T01:20:01;99841.56;;;15.11;100.00
71239;BME280;61342;51.442;7.370;2023-05-11T01:20:44;99833.38;;;15.30;100.00
71239;BME280;61342;51.442;7.370;2023-05-11T01:21:47;99833.25;;;15.43;100.00
71239;BME280;61342;51.442;7.370;2023-05-11T01:27:47;99841.63;;;15.69;100.00
71239;BME280;61342;51.442;7.370;2023-05-11T01:31:48;99823.66;;;15.63;100.00
71239;BME280;61342;51.442;7.370;2023-05-11T01:32:49;99833.09;;;15.63;100.00
71239;BME280;61342;51.442;7.370;2023-05-11T01:33:54;99832.34;;;15.63;100.00
71239;BME280;61342;51.442;7.370;2023-05-11T01:35:19;99839.06;;;15.58;100.00
71239;BME280;61342;51.442;7.370;2023-05-11T01:36:26;99840.81;;;15.54;100.00
71239;BME280;61342;51.442;7.370;2023-05-11T01:37:30;99833.84;;;15.49;100.00
71239;BME280;61342;51.442;7.370;2023-05-11T01:38:34;99828.22;;;15.44;100.00
71239;BME280;61342;51.442;7.370;2023-05-11T01:39:39;99835.38;;;15.43;100.00
71239;BME280;61342;51.442;7.370;2023-05-11T01:40:43;99826.81;;;15.37;100.00
71239;BME280;61342;51.442;7.370;2023-05-11T01:41:44;99828.78;;;15.35;100.00
71239;BME280;61342;51.442;7.370;2023-05-11T01:43:57;99841.66;;;15.26;100.00
71239;BME280;61342;51.442;7.370;2023-05-11T01:45:00;99836.25;;;15.23;100.00
71239;BME280;61342;51.442;7.370;2023-05-11T01:46:02;99840.28;;;15.20;100.00
71239;BME280;61342;51.442;7.370;2023-05-11T01:47:03;99843.53;;;15.16;100.00
71239;BME280;61342;51.442;7.370;2023-05-11T01:48:08;99844.66;;;15.13;100.00
71239;BME280;61342;51.442;7.370;2023-05-11T01:49:11;99837.88;;;15.11;100.00
71239;BME280;61342;51.442;7.370;2023-05-11T01:50:13;99838.25;;;15.07;100.00
71239;BME280;61342;51.442;7.370;2023-05-11T01:51:16;99838.03;;;15.05;100.00
71239;BME280;61342;51.442;7.370;2023-05-11T01:52:20;99849.63;;;15.05;100.00
71239;BME280;61342;51.442;7.370;2023-05-11T01:53:23;99844.75;;;15.00;100.00
71239;BME280;61342;51.442;7.370;2023-05-11T01:54:26;99851.13;;;14.99;100.00
71239;BME280;61342;51.442;7.370;2023-05-11T01:55:30;99845.72;;;14.96;100.00
71239;BME280;61342;51.442;7.370;2023-05-11T01:56:32;99849.75;;;14.93;100.00
71239;BME280;61342;51.442;7.370;2023-05-11T01:57:35;99856.31;;;14.93;100.00
71239;BME280;61342;51.442;7.370;2023-05-11T01:58:39;99848.78;;;14.90;100.00
71239;BME280;61342;51.442;7.370;2023-05-11T01:59:41;99852.44;;;14.91;100.00
71239;BME280;61342;51.442;7.370;2023-05-11T02:00:43;99845.31;;;14.92;100.00
71239;BME280;61342;51.442;7.370;2023-05-11T02:01:44;99847.25;;;14.97;100.00
71239;BME280;61342;51.442;7.370;2023-05-11T02:02:47;99850.19;;;15.04;100.00
71239;BME280;61342;51.442;7.370;2023-05-11T02:03:49;99849.88;;;15.15;100.00
71239;BME280;61342;51.442;7.370;2023-05-11T02:04:51;99849.78;;;15.28;100.00
71239;BME280;61342;51.442;7.370;2023-05-11T02:05:53;99851.16;;;15.34;100.00
71239;BME280;61342;51.442;7.370;2023-05-11T02:06:55;99851.78;;;15.40;100.00
71239;BME280;61342;51.442;7.370;2023-05-11T02:08:00;99852.94;;;15.45;100.00
71239;BME280;61342;51.442;7.370;2023-05-11T02:09:02;99854.91;;;15.50;100.00
71239;BME280;61342;51.442;7.370;2023-05-11T02:10:02;99864.34;;;15.50;100.00
71239;BME280;61342;51.442;7.370;2023-05-11T02:11:05;99849.69;;;15.48;100.00
71239;BME280;61342;51.442;7.370;2023-05-11T02:12:07;99852.56;;;15.48;100.00
71239;BME280;61342;51.442;7.370;2023-05-11T02:13:09;99850.63;;;15.43;100.00
71239;BME280;61342;51.442;7.370;2023-05-11T02:14:10;99853.50;;;15.43;100.00
71239;BME280;61342;51.442;7.370;2023-05-11T02:15:11;99851.56;;;15.38;100.00
71239;BME280;61342;51.442;7.370;2023-05-11T02:16:13;99852.72;;;15.35;100.00
71239;BME280;61342;51.442;7.370;2023-05-11T02:17:14;99847.84;;;15.30;100.00
71239;BME280;61342;51.442;7.370;2023-05-11T02:18:17;99860.59;;;15.27;100.00
71239;BME280;61342;51.442;7.370;2023-05-11T02:19:19;99853.81;;;15.25;100.00
71239;BME280;61342;51.442;7.370;2023-05-11T02:20:21;99857.88;;;15.22;100.00
71239;BME280;61342;51.442;7.370;2023-05-11T02:21:26;99851.63;;;15.18;100.00
71239;BME280;61342;51.442;7.370;2023-05-11T02:22:28;99852.22;;;15.16;100.00
71239;BME280;61342;51.442;7.370;2023-05-11T02:23:30;99851.59;;;15.10;100.00
71239;BME280;61342;51.442;7.370;2023-05-11T02:24:32;99860.84;;;15.09;100.00
71239;BME280;61342;51.442;7.370;2023-05-11T02:25:33;99849.63;;;15.05;100.00
71239;BME280;61342;51.442;7.370;2023-05-11T02:26:33;99839.53;;;14.92;100.00
71239;BME280;61342;51.442;7.370;2023-05-11T02:27:34;99848.63;;;14.96;100.00
71239;BME280;61342;51.442;7.370;2023-05-11T02:28:35;99855.19;;;14.96;100.00
71239;BME280;61342;51.442;7.370;2023-05-11T02:29:35;99861.53;;;14.95;100.00
71239;BME280;61342;51.442;7.370;2023-05-11T02:30:44;99866.16;;;14.90;100.00
71239;BME280;61342;51.442;7.370;2023-05-11T02:31:46;99860.91;;;14.89;100.00
71239;BME280;61342;51.442;7.370;2023-05-11T02:32:50;99861.28;;;14.85;100.00
71239;BME280;61342;51.442;7.370;2023-05-11T02:33:54;99859.72;;;14.84;100.00
71239;BME280;61342;51.442;7.370;2023-05-11T02:35:27;99861.81;;;14.76;100.00
71239;BME280;61342;51.442;7.370;2023-05-11T02:36:29;99864.13;;;14.78;100.00
71239;BME280;61342;51.442;7.370;2023-05-11T02:37:32;99861.81;;;14.76;100.00
71239;BME280;61342;51.442;7.370;2023-05-11T02:38:34;99862.94;;;14.73;100.00
71239;BME280;61342;51.442;7.370;2023-05-11T02:39:37;99866.41;;;14.72;100.00
71239;BME280;61342;51.442;7.370;2023-05-11T02:40:43;99860.22;;;14.68;100.00
71239;BME280;61342;51.442;7.370;2023-05-11T02:41:45;99857.31;;;14.68;100.00
71239;BME280;61342;51.442;7.370;2023-05-11T02:42:48;99854.19;;;14.66;100.00
71239;BME280;61342;51.442;7.370;2023-05-11T02:43:55;99863.66;;;14.66;100.00
71239;BME280;61342;51.442;7.370;2023-05-11T02:45:01;99859.00;;;14.63;100.00
71239;BME280;61342;51.442;7.370;2023-05-11T02:46:05;99870.38;;;14.61;100.00
71239;BME280;61342;51.442;7.370;2023-05-11T02:47:10;99860.91;;;14.61;100.00
71239;BME280;61342;51.442;7.370;2023-05-11T02:48:20;99866.50;;;14.59;100.00
71239;BME280;61342;51.442;7.370;2023-05-11T02:49:22;99862.81;;;14.58;100.00
71239;BME280;61342;51.442;7.370;2023-05-11T02:50:26;99859.16;;;14.58;100.00
71239;BME280;61342;51.442;7.370;2023-05-11T02:51:35;99856.63;;;14.54;100.00
71239;BME280;61342;51.442;7.370;2023-05-11T02:52:41;99863.19;;;14.55;100.00
71239;BME280;61342;51.442;7.370;2023-05-11T02:53:43;99862.97;;;14.53;100.00
71239;BME280;61342;51.442;7.370;2023-05-11T02:54:46;99857.75;;;14.51;100.00
71239;BME280;61342;51.442;7.370;2023-05-11T02:55:49;99864.31;;;14.52;100.00
71239;BME280;61342;51.442;7.370;2023-05-11T02:56:50;99855.63;;;14.52;100.00
71239;BME280;61342;51.442;7.370;2023-05-11T02:57:51;99859.72;;;14.56;100.00
71239;BME280;61342;51.442;7.370;2023-05-11T02:58:52;99868.25;;;14.62;100.00
71239;BME280;61342;51.442;7.370;2023-05-11T02:59:53;99860.63;;;14.72;100.00
71239;BME280;61342;51.442;7.370;2023-05-11T03:00:54;99867.66;;;14.84;100.00
71239;BME280;61342;51.442;7.370;2023-05-11T03:01:55;99871.19;;;14.97;100.00
71239;BME280;61342;51.442;7.370;2023-05-11T03:02:57;99858.53;;;15.07;100.00
71239;BME280;61342;51.442;7.370;2023-05-11T03:03:58;99859.75;;;15.19;100.00
71239;BME280;61342;51.442;7.370;2023-05-11T03:04:58;99859.44;;;15.30;100.00
71239;BME280;61342;51.442;7.370;2023-05-11T03:05:59;99861.81;;;15.39;100.00
71239;BME280;61342;51.442;7.370;2023-05-11T03:06:59;99858.72;;;15.45;100.00
71239;BME280;61342;51.442;7.370;2023-05-11T03:07:59;99868.63;;;15.49;100.00
71239;BME280;61342;51.442;7.370;2023-05-11T03:09:01;99858.78;;;15.52;100.00
71239;BME280;61342;51.442;7.370;2023-05-11T03:10:02;99868.22;;;15.53;100.00
71239;BME280;61342;51.442;7.370;2023-05-11T03:11:03;99861.84;;;15.54;100.00
71239;BME280;61342;51.442;7.370;2023-05-11T03:12:04;99856.63;;;15.53;100.00
71239;BME280;61342;51.442;7.370;2023-05-11T03:13:06;99855.09;;;15.52;100.00
71239;BME280;61342;51.442;7.370;2023-05-11T03:14:08;99858.38;;;15.48;100.00
71239;BME280;61342;51.442;7.370;2023-05-11T03:15:09;99861.44;;;15.50;100.00
71239;BME280;61342;51.442;7.370;2023-05-11T03:16:11;99864.34;;;15.50;100.00
71239;BME280;61342;51.442;7.370;2023-05-11T03:17:13;99865.72;;;15.49;100.00
71239;BME280;61342;51.442;7.370;2023-05-11T03:18:14;99864.16;;;15.48;100.00
71239;BME280;61342;51.442;7.370;2023-05-11T03:19:16;99864.16;;;15.48;100.00
71239;BME280;61342;51.442;7.370;2023-05-11T03:20:18;99860.28;;;15.46;100.00
71239;BME280;61342;51.442;7.370;2023-05-11T03:21:22;99858.72;;;15.45;100.00
71239;BME280;61342;51.442;7.370;2023-05-11T03:22:23;99861.44;;;15.43;100.00
71239;BME280;61342;51.442;7.370;2023-05-11T03:23:24;99861.03;;;15.39;100.00
71239;BME280;61342;51.442;7.370;2023-05-11T03:24:26;99861.41;;;15.35;100.00
71239;BME280;61342;51.442;7.370;2023-05-11T03:25:27;99861.75;;;15.32;100.00
71239;BME280;61342;51.442;7.370;2023-05-11T03:26:29;99862.91;;;15.29;100.00
71239;BME280;61342;51.442;7.370;2023-05-11T03:27:32;99863.28;;;15.25;100.00
71239;BME280;61342;51.442;7.370;2023-05-11T03:28:33;99855.72;;;15.22;100.00
71239;BME280;61342;51.442;7.370;2023-05-11T03:29:36;99856.84;;;15.19;100.00
71239;BME280;61342;51.442;7.370;2023-05-11T03:30:39;99863.00;;;15.16;100.00
71239;BME280;61342;51.442;7.370;2023-05-11T03:31:42;99850.44;;;15.13;100.00
71239;BME280;61342;51.442;7.370;2023-05-11T03:32:43;99862.41;;;15.10;100.00
71239;BME280;61342;51.442;7.370;2023-05-11T03:33:43;99856.78;;;15.04;100.00
71239;BME280;61342;51.442;7.370;2023-05-11T03:34:43;99851.94;;;14.99;100.00
71239;BME280;61342;51.442;7.370;2023-05-11T03:35:45;99859.25;;;15.00;100.00
71239;BME280;61342;51.442;7.370;2023-05-11T03:36:50;99860.97;;;14.96;100.00
71239;BME280;61342;51.442;7.370;2023-05-11T03:37:52;99849.97;;;14.95;100.00
71239;BME280;61342;51.442;7.370;2023-05-11T03:38:54;99850.88;;;14.90;100.00
71239;BME280;61342;51.442;7.370;2023-05-11T03:39:58;99850.88;;;14.90;100.00
71239;BME280;61342;51.442;7.370;2023-05-11T03:41:00;99856.25;;;14.86;100.00
71239;BME280;61342;51.442;7.370;2023-05-11T03:42:01;99858.41;;;14.85;100.00
71239;BME280;61342;51.442;7.370;2023-05-11T03:43:04;99861.88;;;14.84;100.00
71239;BME280;61342;51.442;7.370;2023-05-11T03:44:07;99854.28;;;14.81;100.00
71239;BME280;61342;51.442;7.370;2023-05-11T03:45:12;99859.88;;;14.79;100.00
71239;BME280;61342;51.442;7.370;2023-05-11T03:46:18;99853.69;;;14.75;100.00
71239;BME280;61342;51.442;7.370;2023-05-11T03:47:19;99848.66;;;14.75;100.00
71239;BME280;61342;51.442;7.370;2023-05-11T03:48:21;99854.84;;;14.72;100.00
71239;BME280;61342;51.442;7.370;2023-05-11T03:49:23;99844.59;;;14.71;100.00
71239;BME280;61342;51.442;7.370;2023-05-11T03:50:24;99852.47;;;14.70;100.00
71239;BME280;61342;51.442;7.370;2023-05-11T03:51:26;99838.41;;;14.67;100.00
71239;BME280;61342;51.442;7.370;2023-05-11T03:52:27;99855.38;;;14.70;100.00
71239;BME280;61342;51.442;7.370;2023-05-11T03:53:29;99850.81;;;14.75;100.00
71239;BME280;61342;51.442;7.370;2023-05-11T03:54:29;99863.38;;;14.85;100.00
71239;BME280;61342;51.442;7.370;2023-05-11T03:55:31;99849.75;;;14.93;100.00
71239;BME280;61342;51.442;7.370;2023-05-11T03:56:34;99852.34;;;15.03;100.00
71239;BME280;61342;51.442;7.370;2023-05-11T03:57:35;99846.19;;;15.14;100.00
71239;BME280;61342;51.442;7.370;2023-05-11T03:58:39;99846.28;;;15.22;100.00
71239;BME280;61342;51.442;7.370;2023-05-11T03:59:40;99845.53;;;15.29;100.00
71239;BME280;61342;51.442;7.370;2023-05-11T04:00:40;99851.94;;;15.35;100.00
71239;BME280;61342;51.442;7.370;2023-05-11T04:01:41;99838.81;;;15.34;100.00
71239;BME280;61342;51.442;7.370;2023-05-11T04:06:04;99836.59;;;15.19;100.00
71239;BME280;61342;51.442;7.370;2023-05-11T04:07:04;99849.69;;;15.13;100.00
71239;BME280;61342;51.442;7.370;2023-05-11T04:08:05;99839.59;;;15.06;100.00
71239;BME280;61342;51.442;7.370;2023-05-11T04:09:05;99840.75;;;15.03;100.00
71239;BME280;61342;51.442;7.370;2023-05-11T04:10:06;99848.81;;;14.98;100.00
71239;BME280;61342;51.442;7.370;2023-05-11T04:11:07;99845.91;;;14.98;100.00
71239;BME280;61342;51.442;7.370;2023-05-11T04:12:07;99839.53;;;14.92;100.00
71239;BME280;61342;51.442;7.370;2023-05-11T04:13:08;99843.75;;;14.91;100.00
71239;BME280;61342;51.442;7.370;2023-05-11T04:14:09;99850.13;;;14.89;100.00
71239;BME280;61342;51.442;7.370;2023-05-11T04:15:09;99846.44;;;14.89;100.00
71239;BME280;61342;51.442;7.370;2023-05-11T04:16:10;99840.44;;;14.87;100.00
71239;BME280;61342;51.442;7.370;2023-05-11T04:17:10;99853.38;;;14.86;100.00
71239;BME280;61342;51.442;7.370;2023-05-11T04:18:11;99851.41;;;14.81;100.00
71239;BME280;61342;51.442;7.370;2023-05-11T04:19:11;99854.28;;;14.81;100.00
71239;BME280;61342;51.442;7.370;2023-05-11T04:20:11;99860.09;;;14.81;100.00
71239;BME280;61342;51.442;7.370;2023-05-11T04:21:12;99851.00;;;14.77;100.00
71239;BME280;61342;51.442;7.370;2023-05-11T04:25:15;99848.91;;;14.57;100.00
71239;BME280;61342;51.442;7.370;2023-05-11T04:26:15;99859.38;;;14.60;100.00
71239;BME280;61342;51.442;7.370;2023-05-11T04:27:18;99845.84;;;14.55;100.00
71239;BME280;61342;51.442;7.370;2023-05-11T04:28:19;99852.19;;;14.53;100.00
71239;BME280;61342;51.442;7.370;2023-05-11T04:29:21;99852.31;;;14.48;100.00
71239;BME280;61342;51.442;7.370;2023-05-11T04:30:21;99858.31;;;14.50;100.00
71239;BME280;61342;51.442;7.370;2023-05-11T04:31:22;99858.91;;;14.48;100.00
71239;BME280;61342;51.442;7.370;2023-05-11T04:32:22;99863.34;;;14.49;100.00
71239;BME280;61342;51.442;7.370;2023-05-11T04:33:23;99855.22;;;14.48;100.00
71239;BME280;61342;51.442;7.370;2023-05-11T04:34:23;99857.34;;;14.47;100.00
71239;BME280;61342;51.442;7.370;2023-05-11T04:35:24;99866.78;;;14.48;100.00
71239;BME280;61342;51.442;7.370;2023-05-11T04:36:25;99853.25;;;14.43;100.00
71239;BME280;61342;51.442;7.370;2023-05-11T04:37:25;99858.81;;;14.41;100.00
71239;BME280;61342;51.442;7.370;2023-05-11T04:38:25;99861.56;;;14.46;100.00
71239;BME280;61342;51.442;7.370;2023-05-11T04:39:26;99866.59;;;14.46;100.00
71239;BME280;61342;51.442;7.370;2023-05-11T04:40:26;99863.69;;;14.46;100.00
71239;BME280;61342;51.442;7.370;2023-05-11T04:41:27;99854.59;;;14.42;100.00
71239;BME280;61342;51.442;7.370;2023-05-11T04:42:29;99867.91;;;14.45;100.00
71239;BME280;61342;51.442;7.370;2023-05-11T04:43:30;99863.69;;;14.46;100.00
71239;BME280;61342;51.442;7.370;2023-05-11T04:44:30;99865.03;;;14.45;100.00
71239;BME280;61342;51.442;7.370;2023-05-11T04:45:30;99861.56;;;14.46;100.00
71239;BME280;61342;51.442;7.370;2023-05-11T04:46:31;99861.56;;;14.46;100.00
71239;BME280;61342;51.442;7.370;2023-05-11T04:47:31;99862.56;;;14.49;100.00
71239;BME280;61342;51.442;7.370;2023-05-11T04:48:31;99872.06;;;14.57;100.00
71239;BME280;61342;51.442;7.370;2023-05-11T04:49:32;99863.09;;;14.68;100.00
71239;BME280;61342;51.442;7.370;2023-05-11T04:50:32;99869.91;;;14.78;100.00
71239;BME280;61342;51.442;7.370;2023-05-11T04:51:33;99869.22;;;14.92;100.00
71239;BME280;61342;51.442;7.370;2023-05-11T04:52:33;99862.94;;;15.01;100.00
71239;BME280;61342;51.442;7.370;2023-05-11T04:53:33;99859.69;;;15.12;100.00
71239;BME280;61342;51.442;7.370;2023-05-11T04:54:34;99870.53;;;15.19;100.00
71239;BME280;61342;51.442;7.370;2023-05-11T04:55:35;99864.06;;;15.26;100.00
71239;BME280;61342;51.442;7.370;2023-05-11T04:56:36;99864.81;;;15.26;100.00
71239;BME280;61342;51.442;7.370;2023-05-11T04:57:39;99875.66;;;15.33;100.00
71239;BME280;61342;51.442;7.370;2023-05-11T04:58:40;99863.31;;;15.33;100.00
71239;BME280;61342;51.442;7.370;2023-05-11T04:59:40;99866.44;;;15.35;100.00
71239;BME280;61342;51.442;7.370;2023-05-11T05:00:40;99866.84;;;15.39;100.00
71239;BME280;61342;51.442;7.370;2023-05-11T05:01:41;99864.69;;;15.39;100.00
71239;BME280;61342;51.442;7.370;2023-05-11T05:05:16;99875.13;;;15.35;100.00
71239;BME280;61342;51.442;7.370;2023-05-11T05:06:17;99860.59;;;15.27;100.00
71239;BME280;61342;51.442;7.370;2023-05-11T05:07:17;99868.69;;;15.29;100.00
71239;BME280;61342;51.442;7.370;2023-05-11T05:08:17;99870.84;;;15.28;100.00
71239;BME280;61342;51.442;7.370;2023-05-11T05:09:18;99873.09;;;15.22;100.00
71239;BME280;61342;51.442;7.370;2023-05-11T05:10:18;99874.66;;;15.23;100.00
71239;BME280;61342;51.442;7.370;2023-05-11T05:11:19;99874.84;;;15.25;100.00
71239;BME280;61342;51.442;7.370;2023-05-11T05:12:20;99883.00;;;15.27;100.00
71239;BME280;61342;51.442;7.370;2023-05-11T05:13:21;99876.41;;;15.26;100.00
71239;BME280;61342;51.442;7.370;2023-05-11T05:14:21;99877.56;;;15.23;100.00
71239;BME280;61342;51.442;7.370;2023-05-11T05:15:21;99879.88;;;15.25;100.00
71239;BME280;61342;51.442;7.370;2023-05-11T05:16:22;99876.41;;;15.26;100.00
71239;BME280;61342;51.442;7.370;2023-05-11T05:17:22;99881.22;;;15.24;100.00
71239;BME280;61342;51.442;7.370;2023-05-11T05:18:23;99875.25;;;15.22;100.00
71239;BME280;61342;51.442;7.370;2023-05-11T05:19:23;99888.56;;;15.25;100.00
71239;BME280;61342;51.442;7.370;2023-05-11T05:20:23;99884.13;;;15.24;100.00
71239;BME280;61342;51.442;7.370;2023-05-11T05:21:24;99886.81;;;15.22;100.00
71239;BME280;61342;51.442;7.370;2023-05-11T05:22:25;99885.25;;;15.21;100.00
71239;BME280;61342;51.442;7.370;2023-05-11T05:23:25;99877.13;;;15.19;100.00
71239;BME280;61342;51.442;7.370;2023-05-11T05:24:26;99886.38;;;15.18;100.00
71239;BME280;61342;51.442;7.370;2023-05-11T05:25:27;99887.91;;;15.19;100.00
71239;BME280;61342;51.442;7.370;2023-05-11T05:26:27;99875.50;;;15.11;100.00
71239;BME280;61342;51.442;7.370;2023-05-11T05:27:28;99888.31;;;15.15;100.00
71239;BME280;61342;51.442;7.370;2023-05-11T05:28:29;99880.19;;;15.14;100.00
71239;BME280;61342;51.442;7.370;2023-05-11T05:29:29;99899.88;;;15.15;100.00
71239;BME280;61342;51.442;7.370;2023-05-11T05:30:29;99897.56;;;15.14;100.00
71239;BME280;61342;51.442;7.370;2023-05-11T05:31:30;99896.34;;;15.09;100.00
71239;BME280;61342;51.442;7.370;2023-05-11T05:32:30;99892.53;;;15.14;100.00
71239;BME280;61342;51.442;7.370;2023-05-11T05:33:31;99892.94;;;15.18;100.00
71239;BME280;61342;51.442;7.370;2023-05-11T05:34:31;99899.00;;;15.28;100.00
71239;BME280;61342;51.442;7.370;2023-05-11T05:35:31;99899.47;;;15.39;100.00
71239;BME280;61342;51.442;7.370;2023-05-11T05:36:32;99902.81;;;15.51;100.00
71239;BME280;61342;51.442;7.370;2023-05-11T05:37:32;99902.47;;;15.61;100.00
71239;BME280;61342;51.442;7.370;2023-05-11T05:38:32;99900.59;;;15.71;100.00
71239;BME280;61342;51.442;7.370;2023-05-11T05:39:33;99897.50;;;15.77;100.00
71239;BME280;61342;51.442;7.370;2023-05-11T05:40:33;99907.94;;;15.80;100.00
71239;BME280;61342;51.442;7.370;2023-05-11T05:41:36;99898.88;;;15.83;100.00
71239;BME280;61342;51.442;7.370;2023-05-11T05:42:37;99898.88;;;15.83;100.00
71239;BME280;61342;51.442;7.370;2023-05-11T05:43:37;99898.09;;;15.83;100.00
71239;BME280;61342;51.442;7.370;2023-05-11T05:44:38;99895.78;;;15.81;100.00
71239;BME280;61342;51.442;7.370;2023-05-11T05:45:38;99903.88;;;15.83;100.00